sensor_id;sensor_type;location;lat;lon;timestamp;temperature;humidity
21799;DHT22;24973;47.178;15.316;2023-02-01T00:01:48;2.10;94.80
21799;DHT22;24973;47.178;15.316;2023-02-01T00:04:37;1.90;95.00
21799;DHT22;24973;47.178;15.316;2023-02-01T00:07:25;1.60;95.50
21799;DHT22;24973;47.178;15.316;2023-02-01T00:10:16;1.40;96.00
21799;DHT22;24973;47.178;15.316;2023-02-01T00:13:05;1.60;96.30
21799;DHT22;24973;47.178;15.316;2023-02-01T00:15:53;1.70;96.40
21799;DHT22;24973;47.178;15.316;2023-02-01T00:18:42;1.90;96.70
21799;DHT22;24973;47.178;15.316;2023-02-01T00:21:31;2.20;96.50
21799;DHT22;24973;47.178;15.316;2023-02-01T00:24:20;2.40;96.30
21799;DHT22;24973;47.178;15.316;2023-02-01T00:27:10;2.50;96.40
21799;DHT22;24973;47.178;15.316;2023-02-01T00:30:05;2.60;96.30
21799;DHT22;24973;47.178;15.316;2023-02-01T00:32:55;2.50;95.90
21799;DHT22;24973;47.178;15.316;2023-02-01T00:35:43;2.50;96.20
21799;DHT22;24973;47.178;15.316;2023-02-01T00:38:33;2.40;96.80
21799;DHT22;24973;47.178;15.316;2023-02-01T00:41:24;2.50;97.20
21799;DHT22;24973;47.178;15.316;2023-02-01T00:44:14;2.50;97.20
21799;DHT22;24973;47.178;15.316;2023-02-01T00:47:03;2.60;97.30
21799;DHT22;24973;47.178;15.316;2023-02-01T00:49:52;2.60;97.50
21799;DHT22;24973;47.178;15.316;2023-02-01T00:52:41;2.60;97.70
21799;DHT22;24973;47.178;15.316;2023-02-01T00:55:29;2.60;97.40
21799;DHT22;24973;47.178;15.316;2023-02-01T00:58:18;2.50;97.50
21799;DHT22;24973;47.178;15.316;2023-02-01T01:01:10;2.40;98.20
21799;DHT22;24973;47.178;15.316;2023-02-01T01:04:00;2.40;98.50
21799;DHT22;24973;47.178;15.316;2023-02-01T01:06:49;2.30;98.60
21799;DHT22;24973;47.178;15.316;2023-02-01T01:09:38;2.30;99.00
21799;DHT22;24973;47.178;15.316;2023-02-01T01:12:26;2.20;98.80
21799;DHT22;24973;47.178;15.316;2023-02-01T01:15:15;2.20;99.20
21799;DHT22;24973;47.178;15.316;2023-02-01T01:18:06;2.10;99.40
21799;DHT22;24973;47.178;15.316;2023-02-01T01:20:55;2.10;99.90
21799;DHT22;24973;47.178;15.316;2023-02-01T01:23:45;2.10;99.90
21799;DHT22;24973;47.178;15.316;2023-02-01T01:26:34;1.90;99.90
21799;DHT22;24973;47.178;15.316;2023-02-01T01:29:23;1.80;99.90
21799;DHT22;24973;47.178;15.316;2023-02-01T01:32:11;1.80;99.90
21799;DHT22;24973;47.178;15.316;2023-02-01T01:35:01;1.80;99.90
21799;DHT22;24973;47.178;15.316;2023-02-01T01:37:50;2.70;99.90
21799;DHT22;24973;47.178;15.316;2023-02-01T01:40:39;1.70;99.90
21799;DHT22;24973;47.178;15.316;2023-02-01T01:43:47;1.70;99.90
21799;DHT22;24973;47.178;15.316;2023-02-01T01:46:40;1.70;99.90
21799;DHT22;24973;47.178;15.316;2023-02-01T01:49:29;1.50;99.90
21799;DHT22;24973;47.178;15.316;2023-02-01T01:52:19;1.50;99.90
21799;DHT22;24973;47.178;15.316;2023-02-01T01:55:08;1.50;99.90
21799;DHT22;24973;47.178;15.316;2023-02-01T01:57:59;1.60;99.90
21799;DHT22;24973;47.178;15.316;2023-02-01T02:00:51;1.30;99.90
21799;DHT22;24973;47.178;15.316;2023-02-01T02:03:43;1.30;99.90
21799;DHT22;24973;47.178;15.316;2023-02-01T02:06:42;1.30;99.90
21799;DHT22;24973;47.178;15.316;2023-02-01T02:09:36;1.20;99.90
21799;DHT22;24973;47.178;15.316;2023-02-01T02:12:27;1.30;99.90
21799;DHT22;24973;47.178;15.316;2023-02-01T02:15:17;1.30;99.90
21799;DHT22;24973;47.178;15.316;2023-02-01T02:18:10;1.20;99.90
21799;DHT22;24973;47.178;15.316;2023-02-01T02:21:12;1.20;99.90
21799;DHT22;24973;47.178;15.316;2023-02-01T02:24:31;1.10;99.90
21799;DHT22;24973;47.178;15.316;2023-02-01T02:27:36;1.10;99.90
21799;DHT22;24973;47.178;15.316;2023-02-01T02:34:10;1.00;99.90
21799;DHT22;24973;47.178;15.316;2023-02-01T02:37:08;1.10;99.90
21799;DHT22;24973;47.178;15.316;2023-02-01T02:40:07;1.00;99.90
21799;DHT22;24973;47.178;15.316;2023-02-01T02:43:05;0.80;99.90
21799;DHT22;24973;47.178;15.316;2023-02-01T02:46:21;0.80;99.90
21799;DHT22;24973;47.178;15.316;2023-02-01T02:49:36;0.80;99.90
21799;DHT22;24973;47.178;15.316;2023-02-01T02:52:28;0.80;99.90
21799;DHT22;24973;47.178;15.316;2023-02-01T02:55:36;0.90;99.90
21799;DHT22;24973;47.178;15.316;2023-02-01T02:58:27;1.00;99.90
21799;DHT22;24973;47.178;15.316;2023-02-01T03:01:33;1.00;99.90
21799;DHT22;24973;47.178;15.316;2023-02-01T03:04:41;1.00;99.90
21799;DHT22;24973;47.178;15.316;2023-02-01T03:07:53;1.10;99.90
21799;DHT22;24973;47.178;15.316;2023-02-01T03:10:54;1.10;99.90
21799;DHT22;24973;47.178;15.316;2023-02-01T03:13:47;1.00;99.90
21799;DHT22;24973;47.178;15.316;2023-02-01T03:16:41;1.20;99.90
21799;DHT22;24973;47.178;15.316;2023-02-01T03:19:40;1.10;99.90
21799;DHT22;24973;47.178;15.316;2023-02-01T03:22:37;1.10;99.90
21799;DHT22;24973;47.178;15.316;2023-02-01T03:25:30;1.20;99.90
21799;DHT22;24973;47.178;15.316;2023-02-01T03:28:22;1.20;99.90
21799;DHT22;24973;47.178;15.316;2023-02-01T03:31:11;1.10;99.90
21799;DHT22;24973;47.178;15.316;2023-02-01T03:34:01;1.10;99.90
21799;DHT22;24973;47.178;15.316;2023-02-01T03:36:56;1.10;99.90
21799;DHT22;24973;47.178;15.316;2023-02-01T03:39:49;1.20;99.90
21799;DHT22;24973;47.178;15.316;2023-02-01T03:42:46;0.90;99.90
21799;DHT22;24973;47.178;15.316;2023-02-01T03:45:40;1.00;99.90
21799;DHT22;24973;47.178;15.316;2023-02-01T03:48:31;1.00;99.90
21799;DHT22;24973;47.178;15.316;2023-02-01T03:51:23;1.00;99.90
21799;DHT22;24973;47.178;15.316;2023-02-01T03:54:15;1.00;99.90
21799;DHT22;24973;47.178;15.316;2023-02-01T03:57:09;0.90;99.90
21799;DHT22;24973;47.178;15.316;2023-02-01T04:00:06;0.90;99.90
21799;DHT22;24973;47.178;15.316;2023-02-01T04:02:57;0.90;99.90
21799;DHT22;24973;47.178;15.316;2023-02-01T04:05:45;1.00;99.90
21799;DHT22;24973;47.178;15.316;2023-02-01T04:08:34;1.00;99.90
21799;DHT22;24973;47.178;15.316;2023-02-01T04:11:25;1.10;99.90
21799;DHT22;24973;47.178;15.316;2023-02-01T04:14:14;1.00;99.90
21799;DHT22;24973;47.178;15.316;2023-02-01T04:17:03;0.90;99.90
21799;DHT22;24973;47.178;15.316;2023-02-01T04:19:52;0.90;99.90
21799;DHT22;24973;47.178;15.316;2023-02-01T04:22:41;0.90;99.90
21799;DHT22;24973;47.178;15.316;2023-02-01T04:25:30;0.90;99.90
21799;DHT22;24973;47.178;15.316;2023-02-01T04:28:20;0.90;99.90
21799;DHT22;24973;47.178;15.316;2023-02-01T04:31:09;1.00;99.90
21799;DHT22;24973;47.178;15.316;2023-02-01T04:33:57;1.00;99.90
21799;DHT22;24973;47.178;15.316;2023-02-01T04:36:46;1.00;99.90
21799;DHT22;24973;47.178;15.316;2023-02-01T04:39:35;0.80;99.90
21799;DHT22;24973;47.178;15.316;2023-02-01T04:42:24;0.80;99.90
21799;DHT22;24973;47.178;15.316;2023-02-01T04:45:13;0.80;99.90
21799;DHT22;24973;47.178;15.316;2023-02-01T04:48:02;0.80;99.90
21799;DHT22;24973;47.178;15.316;2023-02-01T04:50:51;0.80;99.90
21799;DHT22;24973;47.178;15.316;2023-02-01T04:53:41;0.90;99.90
21799;DHT22;24973;47.178;15.316;2023-02-01T04:56:30;0.90;99.90
21799;DHT22;24973;47.178;15.316;2023-02-01T04:59:19;0.90;99.90
21799;DHT22;24973;47.178;15.316;2023-02-01T05:02:07;0.90;99.90
21799;DHT22;24973;47.178;15.316;2023-02-01T05:04:56;0.90;99.90
21799;DHT22;24973;47.178;15.316;2023-02-01T05:07:45;0.70;99.90
21799;DHT22;24973;47.178;15.316;2023-02-01T05:10:36;0.70;99.90
21799;DHT22;24973;47.178;15.316;2023-02-01T05:13:24;0.70;99.90
21799;DHT22;24973;47.178;15.316;2023-02-01T05:16:31;0.40;99.90
21799;DHT22;24973;47.178;15.316;2023-02-01T05:19:20;0.40;99.90
21799;DHT22;24973;47.178;15.316;2023-02-01T05:22:09;0.30;99.90
21799;DHT22;24973;47.178;15.316;2023-02-01T05:24:57;0.30;99.90
21799;DHT22;24973;47.178;15.316;2023-02-01T05:27:47;0.30;99.90
21799;DHT22;24973;47.178;15.316;2023-02-01T05:30:36;0.30;99.90
21799;DHT22;24973;47.178;15.316;2023-02-01T05:33:28;0.40;99.90
21799;DHT22;24973;47.178;15.316;2023-02-01T05:36:17;0.60;99.90
21799;DHT22;24973;47.178;15.316;2023-02-01T05:39:05;0.50;99.90
21799;DHT22;24973;47.178;15.316;2023-02-01T05:41:54;0.40;99.90
21799;DHT22;24973;47.178;15.316;2023-02-01T05:44:44;0.30;99.90
21799;DHT22;24973;47.178;15.316;2023-02-01T05:47:33;0.40;99.90
21799;DHT22;24973;47.178;15.316;2023-02-01T05:50:22;0.40;99.90
21799;DHT22;24973;47.178;15.316;2023-02-01T05:53:11;0.40;99.90
21799;DHT22;24973;47.178;15.316;2023-02-01T05:56:00;0.40;99.90
21799;DHT22;24973;47.178;15.316;2023-02-01T05:58:49;0.30;99.90
21799;DHT22;24973;47.178;15.316;2023-02-01T06:01:39;0.30;99.90
21799;DHT22;24973;47.178;15.316;2023-02-01T06:04:28;0.30;99.90
21799;DHT22;24973;47.178;15.316;2023-02-01T06:07:17;0.30;99.90
21799;DHT22;24973;47.178;15.316;2023-02-01T06:10:06;0.30;99.90
21799;DHT22;24973;47.178;15.316;2023-02-01T06:12:56;0.20;99.90
21799;DHT22;24973;47.178;15.316;2023-02-01T06:15:44;0.10;99.90
21799;DHT22;24973;47.178;15.316;2023-02-01T06:18:35;0.00;99.90
21799;DHT22;24973;47.178;15.316;2023-02-01T06:21:24;0.00;99.90
21799;DHT22;24973;47.178;15.316;2023-02-01T06:24:14;-0.10;99.90
21799;DHT22;24973;47.178;15.316;2023-02-01T06:27:03;-0.20;99.90
21799;DHT22;24973;47.178;15.316;2023-02-01T06:29:51;-0.20;99.90
21799;DHT22;24973;47.178;15.316;2023-02-01T06:32:42;-0.30;99.90
21799;DHT22;24973;47.178;15.316;2023-02-01T06:35:32;-0.30;99.90
21799;DHT22;24973;47.178;15.316;2023-02-01T06:38:21;-0.30;99.90
21799;DHT22;24973;47.178;15.316;2023-02-01T06:41:10;-0.40;99.90
21799;DHT22;24973;47.178;15.316;2023-02-01T06:43:58;-0.40;99.90
21799;DHT22;24973;47.178;15.316;2023-02-01T06:46:47;-0.40;99.90
21799;DHT22;24973;47.178;15.316;2023-02-01T06:49:36;-0.50;99.90
21799;DHT22;24973;47.178;15.316;2023-02-01T06:52:26;-0.50;99.90
21799;DHT22;24973;47.178;15.316;2023-02-01T06:55:15;-0.50;99.90
21799;DHT22;24973;47.178;15.316;2023-02-01T06:58:03;-0.50;99.90
21799;DHT22;24973;47.178;15.316;2023-02-01T07:00:52;-0.40;99.90
21799;DHT22;24973;47.178;15.316;2023-02-01T07:03:41;-0.30;99.90
21799;DHT22;24973;47.178;15.316;2023-02-01T07:06:30;-0.20;99.90
21799;DHT22;24973;47.178;15.316;2023-02-01T07:09:21;-0.10;99.90
21799;DHT22;24973;47.178;15.316;2023-02-01T07:12:09;-0.10;99.90
21799;DHT22;24973;47.178;15.316;2023-02-01T07:14:58;0.00;99.90
21799;DHT22;24973;47.178;15.316;2023-02-01T07:17:48;0.00;99.90
21799;DHT22;24973;47.178;15.316;2023-02-01T07:20:37;0.10;99.90
21799;DHT22;24973;47.178;15.316;2023-02-01T07:23:26;0.20;99.90
21799;DHT22;24973;47.178;15.316;2023-02-01T07:26:16;0.30;99.90
21799;DHT22;24973;47.178;15.316;2023-02-01T07:29:05;0.30;99.90
21799;DHT22;24973;47.178;15.316;2023-02-01T07:31:53;0.50;99.90
21799;DHT22;24973;47.178;15.316;2023-02-01T07:34:42;0.60;99.90
21799;DHT22;24973;47.178;15.316;2023-02-01T07:37:31;0.60;99.90
21799;DHT22;24973;47.178;15.316;2023-02-01T07:40:19;0.70;99.90
21799;DHT22;24973;47.178;15.316;2023-02-01T07:43:16;0.90;99.90
21799;DHT22;24973;47.178;15.316;2023-02-01T07:46:06;1.20;99.90
21799;DHT22;24973;47.178;15.316;2023-02-01T07:48:55;1.40;99.90
21799;DHT22;24973;47.178;15.316;2023-02-01T07:51:44;1.60;99.90
21799;DHT22;24973;47.178;15.316;2023-02-01T07:54:33;1.70;99.90
21799;DHT22;24973;47.178;15.316;2023-02-01T07:57:21;1.90;99.90
21799;DHT22;24973;47.178;15.316;2023-02-01T08:00:13;2.30;99.90
21799;DHT22;24973;47.178;15.316;2023-02-01T08:03:19;2.40;99.90
21799;DHT22;24973;47.178;15.316;2023-02-01T08:06:08;2.40;99.90
21799;DHT22;24973;47.178;15.316;2023-02-01T08:08:57;2.40;99.90
21799;DHT22;24973;47.178;15.316;2023-02-01T08:11:46;2.50;99.90
21799;DHT22;24973;47.178;15.316;2023-02-01T08:14:35;2.70;99.90
21799;DHT22;24973;47.178;15.316;2023-02-01T08:17:25;2.90;99.90
21799;DHT22;24973;47.178;15.316;2023-02-01T08:20:15;3.10;99.90
21799;DHT22;24973;47.178;15.316;2023-02-01T08:23:07;3.40;99.90
21799;DHT22;24973;47.178;15.316;2023-02-01T08:26:04;3.70;99.90
21799;DHT22;24973;47.178;15.316;2023-02-01T08:28:56;4.00;99.90
21799;DHT22;24973;47.178;15.316;2023-02-01T08:31:46;4.40;99.90
21799;DHT22;24973;47.178;15.316;2023-02-01T08:34:36;4.80;99.90
21799;DHT22;24973;47.178;15.316;2023-02-01T08:37:25;4.80;99.90
21799;DHT22;24973;47.178;15.316;2023-02-01T08:40:14;4.80;99.90
21799;DHT22;24973;47.178;15.316;2023-02-01T08:43:03;4.90;99.90
21799;DHT22;24973;47.178;15.316;2023-02-01T08:45:54;5.00;99.90
21799;DHT22;24973;47.178;15.316;2023-02-01T08:48:45;5.20;99.90
21799;DHT22;24973;47.178;15.316;2023-02-01T08:51:36;5.40;99.90
21799;DHT22;24973;47.178;15.316;2023-02-01T08:54:24;5.80;99.90
21799;DHT22;24973;47.178;15.316;2023-02-01T08:57:13;6.00;99.90
21799;DHT22;24973;47.178;15.316;2023-02-01T09:00:03;6.50;99.90
21799;DHT22;24973;47.178;15.316;2023-02-01T09:02:55;6.80;99.90
21799;DHT22;24973;47.178;15.316;2023-02-01T09:05:44;7.10;99.90
21799;DHT22;24973;47.178;15.316;2023-02-01T09:08:38;7.30;99.90
21799;DHT22;24973;47.178;15.316;2023-02-01T09:11:27;7.50;99.90
21799;DHT22;24973;47.178;15.316;2023-02-01T09:14:15;7.70;99.90
21799;DHT22;24973;47.178;15.316;2023-02-01T09:17:04;8.00;99.90
21799;DHT22;24973;47.178;15.316;2023-02-01T09:19:53;8.30;99.90
21799;DHT22;24973;47.178;15.316;2023-02-01T09:22:42;8.50;99.90
21799;DHT22;24973;47.178;15.316;2023-02-01T09:25:32;8.60;99.10
21799;DHT22;24973;47.178;15.316;2023-02-01T09:28:21;8.80;98.30
21799;DHT22;24973;47.178;15.316;2023-02-01T09:31:09;9.00;97.50
21799;DHT22;24973;47.178;15.316;2023-02-01T09:33:58;9.10;95.10
21799;DHT22;24973;47.178;15.316;2023-02-01T09:36:47;9.10;94.30
21799;DHT22;24973;47.178;15.316;2023-02-01T09:39:35;9.30;94.70
21799;DHT22;24973;47.178;15.316;2023-02-01T09:42:48;9.40;93.40
21799;DHT22;24973;47.178;15.316;2023-02-01T09:45:51;9.60;93.60
21799;DHT22;24973;47.178;15.316;2023-02-01T09:48:46;9.70;92.20
21799;DHT22;24973;47.178;15.316;2023-02-01T09:51:38;9.70;91.60
21799;DHT22;24973;47.178;15.316;2023-02-01T09:54:40;9.70;90.80
21799;DHT22;24973;47.178;15.316;2023-02-01T09:57:41;9.90;91.00
21799;DHT22;24973;47.178;15.316;2023-02-01T10:00:36;11.00;90.70
21799;DHT22;24973;47.178;15.316;2023-02-01T10:03:28;10.10;90.20
21799;DHT22;24973;47.178;15.316;2023-02-01T10:06:31;10.20;89.30
21799;DHT22;24973;47.178;15.316;2023-02-01T10:09:44;10.20;84.20
21799;DHT22;24973;47.178;15.316;2023-02-01T10:13:02;10.10;83.80
21799;DHT22;24973;47.178;15.316;2023-02-01T10:16:07;10.30;85.20
21799;DHT22;24973;47.178;15.316;2023-02-01T10:19:15;10.50;79.60
21799;DHT22;24973;47.178;15.316;2023-02-01T10:22:24;10.60;83.70
21799;DHT22;24973;47.178;15.316;2023-02-01T10:25:43;11.00;83.00
21799;DHT22;24973;47.178;15.316;2023-02-01T10:28:38;11.30;82.20
21799;DHT22;24973;47.178;15.316;2023-02-01T10:31:29;11.40;76.10
21799;DHT22;24973;47.178;15.316;2023-02-01T10:34:21;11.60;77.80
21799;DHT22;24973;47.178;15.316;2023-02-01T10:37:23;11.80;80.80
21799;DHT22;24973;47.178;15.316;2023-02-01T10:40:20;11.80;77.50
21799;DHT22;24973;47.178;15.316;2023-02-01T10:43:10;11.80;76.20
21799;DHT22;24973;47.178;15.316;2023-02-01T10:46:00;12.20;74.30
21799;DHT22;24973;47.178;15.316;2023-02-01T10:48:50;12.20;72.20
21799;DHT22;24973;47.178;15.316;2023-02-01T10:51:45;12.60;73.70
21799;DHT22;24973;47.178;15.316;2023-02-01T10:54:37;13.00;72.80
21799;DHT22;24973;47.178;15.316;2023-02-01T10:57:27;13.40;72.90
21799;DHT22;24973;47.178;15.316;2023-02-01T11:00:20;13.30;70.40
21799;DHT22;24973;47.178;15.316;2023-02-01T11:03:32;13.00;69.00
21799;DHT22;24973;47.178;15.316;2023-02-01T11:06:28;12.50;69.00
21799;DHT22;24973;47.178;15.316;2023-02-01T11:09:20;12.10;70.50
21799;DHT22;24973;47.178;15.316;2023-02-01T11:12:25;11.90;68.10
21799;DHT22;24973;47.178;15.316;2023-02-01T11:15:19;11.60;64.30
21799;DHT22;24973;47.178;15.316;2023-02-01T11:18:16;11.30;71.10
21799;DHT22;24973;47.178;15.316;2023-02-01T11:21:08;11.50;59.50
21799;DHT22;24973;47.178;15.316;2023-02-01T11:24:01;11.70;59.40
21799;DHT22;24973;47.178;15.316;2023-02-01T11:26:54;12.00;59.30
21799;DHT22;24973;47.178;15.316;2023-02-01T11:29:46;12.20;59.30
21799;DHT22;24973;47.178;15.316;2023-02-01T11:32:35;12.50;58.20
21799;DHT22;24973;47.178;15.316;2023-02-01T11:35:28;12.80;57.20
21799;DHT22;24973;47.178;15.316;2023-02-01T11:38:23;13.00;57.00
21799;DHT22;24973;47.178;15.316;2023-02-01T11:41:22;13.20;56.30
21799;DHT22;24973;47.178;15.316;2023-02-01T11:44:21;13.40;56.20
21799;DHT22;24973;47.178;15.316;2023-02-01T11:47:25;13.30;54.20
21799;DHT22;24973;47.178;15.316;2023-02-01T11:50:17;13.30;54.40
21799;DHT22;24973;47.178;15.316;2023-02-01T11:53:31;13.70;55.40
21799;DHT22;24973;47.178;15.316;2023-02-01T11:56:32;14.00;53.10
21799;DHT22;24973;47.178;15.316;2023-02-01T11:59:32;15.20;53.40
21799;DHT22;24973;47.178;15.316;2023-02-01T12:02:59;13.60;52.80
21799;DHT22;24973;47.178;15.316;2023-02-01T12:05:57;13.90;52.90
21799;DHT22;24973;47.178;15.316;2023-02-01T12:09:10;14.10;53.60
21799;DHT22;24973;47.178;15.316;2023-02-01T12:12:12;14.80;53.40
21799;DHT22;24973;47.178;15.316;2023-02-01T12:15:27;15.00;51.90
21799;DHT22;24973;47.178;15.316;2023-02-01T12:18:39;14.60;50.90
21799;DHT22;24973;47.178;15.316;2023-02-01T12:21:54;14.90;51.50
21799;DHT22;24973;47.178;15.316;2023-02-01T12:25:16;15.70;51.20
21799;DHT22;24973;47.178;15.316;2023-02-01T12:31:50;16.20;48.50
21799;DHT22;24973;47.178;15.316;2023-02-01T12:35:27;16.40;48.70
21799;DHT22;24973;47.178;15.316;2023-02-01T12:38:46;16.30;48.50
21799;DHT22;24973;47.178;15.316;2023-02-01T12:41:47;16.00;47.70
21799;DHT22;24973;47.178;15.316;2023-02-01T12:44:43;16.30;48.20
21799;DHT22;24973;47.178;15.316;2023-02-01T12:47:39;16.70;48.10
21799;DHT22;24973;47.178;15.316;2023-02-01T12:50:35;16.90;48.30
21799;DHT22;24973;47.178;15.316;2023-02-01T12:53:33;16.80;46.00
21799;DHT22;24973;47.178;15.316;2023-02-01T12:56:34;16.10;46.50
21799;DHT22;24973;47.178;15.316;2023-02-01T12:59:31;16.10;47.00
21799;DHT22;24973;47.178;15.316;2023-02-01T13:02:27;16.30;47.30
21799;DHT22;24973;47.178;15.316;2023-02-01T13:05:29;16.30;46.90
21799;DHT22;24973;47.178;15.316;2023-02-01T13:08:24;16.40;46.60
21799;DHT22;24973;47.178;15.316;2023-02-01T13:11:18;16.60;45.50
21799;DHT22;24973;47.178;15.316;2023-02-01T13:14:25;15.80;46.40
21799;DHT22;24973;47.178;15.316;2023-02-01T13:17:23;15.30;47.10
21799;DHT22;24973;47.178;15.316;2023-02-01T13:20:18;14.20;47.70
21799;DHT22;24973;47.178;15.316;2023-02-01T13:23:14;13.50;48.30
21799;DHT22;24973;47.178;15.316;2023-02-01T13:26:11;13.60;49.60
21799;DHT22;24973;47.178;15.316;2023-02-01T13:29:02;13.80;49.80
21799;DHT22;24973;47.178;15.316;2023-02-01T13:35:54;14.30;48.20
21799;DHT22;24973;47.178;15.316;2023-02-01T13:42:37;14.00;49.00
21799;DHT22;24973;47.178;15.316;2023-02-01T13:45:35;14.40;50.10
21799;DHT22;24973;47.178;15.316;2023-02-01T13:48:29;14.20;50.20
21799;DHT22;24973;47.178;15.316;2023-02-01T13:51:36;13.80;51.60
21799;DHT22;24973;47.178;15.316;2023-02-01T13:54:31;14.30;51.60
21799;DHT22;24973;47.178;15.316;2023-02-01T13:57:35;14.80;51.20
21799;DHT22;24973;47.178;15.316;2023-02-01T14:00:27;14.90;50.30
21799;DHT22;24973;47.178;15.316;2023-02-01T14:03:21;14.30;50.20
21799;DHT22;24973;47.178;15.316;2023-02-01T14:06:37;14.30;50.40
21799;DHT22;24973;47.178;15.316;2023-02-01T14:09:33;14.40;51.30
21799;DHT22;24973;47.178;15.316;2023-02-01T14:12:46;14.60;51.20
21799;DHT22;24973;47.178;15.316;2023-02-01T14:15:36;14.50;50.30
21799;DHT22;24973;47.178;15.316;2023-02-01T14:21:58;14.20;50.60
21799;DHT22;24973;47.178;15.316;2023-02-01T14:24:50;14.00;50.40
21799;DHT22;24973;47.178;15.316;2023-02-01T14:27:41;13.80;51.00
21799;DHT22;24973;47.178;15.316;2023-02-01T14:30:30;13.40;51.40
21799;DHT22;24973;47.178;15.316;2023-02-01T14:33:22;13.10;51.70
21799;DHT22;24973;47.178;15.316;2023-02-01T14:36:13;12.70;52.30
21799;DHT22;24973;47.178;15.316;2023-02-01T14:39:04;12.30;51.90
21799;DHT22;24973;47.178;15.316;2023-02-01T14:42:16;12.00;52.90
21799;DHT22;24973;47.178;15.316;2023-02-01T14:45:48;11.60;53.40
21799;DHT22;24973;47.178;15.316;2023-02-01T14:48:45;11.20;53.70
21799;DHT22;24973;47.178;15.316;2023-02-01T14:51:37;11.00;54.00
21799;DHT22;24973;47.178;15.316;2023-02-01T14:54:28;10.80;54.00
21799;DHT22;24973;47.178;15.316;2023-02-01T14:57:18;10.50;54.00
21799;DHT22;24973;47.178;15.316;2023-02-01T15:00:18;10.10;54.30
21799;DHT22;24973;47.178;15.316;2023-02-01T15:03:23;9.60;54.50
21799;DHT22;24973;47.178;15.316;2023-02-01T15:06:32;9.30;55.90
21799;DHT22;24973;47.178;15.316;2023-02-01T15:09:26;9.10;55.90
21799;DHT22;24973;47.178;15.316;2023-02-01T15:12:22;9.10;56.80
21799;DHT22;24973;47.178;15.316;2023-02-01T15:15:17;9.10;56.80
21799;DHT22;24973;47.178;15.316;2023-02-01T15:18:16;9.00;56.70
21799;DHT22;24973;47.178;15.316;2023-02-01T15:21:12;9.00;57.00
21799;DHT22;24973;47.178;15.316;2023-02-01T15:24:12;9.10;57.50
21799;DHT22;24973;47.178;15.316;2023-02-01T15:27:08;9.00;56.70
21799;DHT22;24973;47.178;15.316;2023-02-01T15:30:05;8.80;56.80
21799;DHT22;24973;47.178;15.316;2023-02-01T15:33:05;8.70;56.80
21799;DHT22;24973;47.178;15.316;2023-02-01T15:35:56;8.80;57.50
21799;DHT22;24973;47.178;15.316;2023-02-01T15:39:11;8.70;57.30
21799;DHT22;24973;47.178;15.316;2023-02-01T15:42:12;8.50;57.20
21799;DHT22;24973;47.178;15.316;2023-02-01T15:45:16;8.50;57.60
21799;DHT22;24973;47.178;15.316;2023-02-01T15:48:10;8.50;57.30
21799;DHT22;24973;47.178;15.316;2023-02-01T15:51:00;8.40;57.20
21799;DHT22;24973;47.178;15.316;2023-02-01T15:53:53;8.40;57.30
21799;DHT22;24973;47.178;15.316;2023-02-01T15:56:43;8.40;57.30
21799;DHT22;24973;47.178;15.316;2023-02-01T15:59:41;8.30;58.10
21799;DHT22;24973;47.178;15.316;2023-02-01T16:02:34;8.30;58.60
21799;DHT22;24973;47.178;15.316;2023-02-01T16:05:33;8.20;58.50
21799;DHT22;24973;47.178;15.316;2023-02-01T16:08:27;8.10;58.70
21799;DHT22;24973;47.178;15.316;2023-02-01T16:11:23;8.10;58.10
21799;DHT22;24973;47.178;15.316;2023-02-01T16:14:15;8.00;58.10
21799;DHT22;24973;47.178;15.316;2023-02-01T16:17:05;8.00;58.70
21799;DHT22;24973;47.178;15.316;2023-02-01T16:19:54;7.90;59.80
21799;DHT22;24973;47.178;15.316;2023-02-01T16:22:44;7.80;60.00
21799;DHT22;24973;47.178;15.316;2023-02-01T16:25:33;7.80;60.10
21799;DHT22;24973;47.178;15.316;2023-02-01T16:28:22;7.70;60.70
21799;DHT22;24973;47.178;15.316;2023-02-01T16:31:12;7.60;62.70
21799;DHT22;24973;47.178;15.316;2023-02-01T16:34:13;7.50;64.00
21799;DHT22;24973;47.178;15.316;2023-02-01T16:37:04;7.30;62.80
21799;DHT22;24973;47.178;15.316;2023-02-01T16:39:52;7.30;64.30
21799;DHT22;24973;47.178;15.316;2023-02-01T16:42:43;7.10;65.10
21799;DHT22;24973;47.178;15.316;2023-02-01T16:45:32;7.00;65.90
21799;DHT22;24973;47.178;15.316;2023-02-01T16:48:23;7.00;66.30
21799;DHT22;24973;47.178;15.316;2023-02-01T16:51:15;6.90;66.50
21799;DHT22;24973;47.178;15.316;2023-02-01T16:54:04;6.80;68.80
21799;DHT22;24973;47.178;15.316;2023-02-01T16:56:53;6.70;70.20
21799;DHT22;24973;47.178;15.316;2023-02-01T16:59:43;6.50;70.90
21799;DHT22;24973;47.178;15.316;2023-02-01T17:02:32;6.40;71.90
21799;DHT22;24973;47.178;15.316;2023-02-01T17:05:21;6.30;72.30
21799;DHT22;24973;47.178;15.316;2023-02-01T17:08:13;6.10;73.50
21799;DHT22;24973;47.178;15.316;2023-02-01T17:11:06;6.00;74.90
21799;DHT22;24973;47.178;15.316;2023-02-01T17:13:56;6.00;74.10
21799;DHT22;24973;47.178;15.316;2023-02-01T17:16:47;5.90;75.30
21799;DHT22;24973;47.178;15.316;2023-02-01T17:19:37;5.80;75.70
21799;DHT22;24973;47.178;15.316;2023-02-01T17:22:25;5.70;76.50
21799;DHT22;24973;47.178;15.316;2023-02-01T17:25:17;5.60;76.00
21799;DHT22;24973;47.178;15.316;2023-02-01T17:28:07;5.50;75.70
21799;DHT22;24973;47.178;15.316;2023-02-01T17:30:56;5.50;76.50
21799;DHT22;24973;47.178;15.316;2023-02-01T17:33:45;5.40;77.70
21799;DHT22;24973;47.178;15.316;2023-02-01T17:36:33;5.30;78.50
21799;DHT22;24973;47.178;15.316;2023-02-01T17:39:23;5.20;78.80
21799;DHT22;24973;47.178;15.316;2023-02-01T17:42:42;5.10;79.00
21799;DHT22;24973;47.178;15.316;2023-02-01T17:45:37;5.00;79.60
21799;DHT22;24973;47.178;15.316;2023-02-01T17:48:26;4.80;80.10
21799;DHT22;24973;47.178;15.316;2023-02-01T17:51:16;4.70;80.80
21799;DHT22;24973;47.178;15.316;2023-02-01T17:54:08;4.60;81.20
21799;DHT22;24973;47.178;15.316;2023-02-01T17:56:59;4.50;82.10
21799;DHT22;24973;47.178;15.316;2023-02-01T17:59:50;4.40;83.20
21799;DHT22;24973;47.178;15.316;2023-02-01T18:02:39;4.20;83.10
21799;DHT22;24973;47.178;15.316;2023-02-01T18:05:35;4.20;84.20
21799;DHT22;24973;47.178;15.316;2023-02-01T18:08:29;3.90;85.00
21799;DHT22;24973;47.178;15.316;2023-02-01T18:11:20;3.90;86.00
21799;DHT22;24973;47.178;15.316;2023-02-01T18:14:11;3.80;87.10
21799;DHT22;24973;47.178;15.316;2023-02-01T18:17:01;3.60;88.30
21799;DHT22;24973;47.178;15.316;2023-02-01T18:19:50;3.50;90.00
21799;DHT22;24973;47.178;15.316;2023-02-01T18:22:40;3.40;90.20
21799;DHT22;24973;47.178;15.316;2023-02-01T18:25:30;3.40;90.00
21799;DHT22;24973;47.178;15.316;2023-02-01T18:28:23;3.30;90.20
21799;DHT22;24973;47.178;15.316;2023-02-01T18:31:21;3.30;90.40
21799;DHT22;24973;47.178;15.316;2023-02-01T18:34:13;3.30;90.20